Latest Weather Observations for Forbes

IDN60801

Issued at 3:32 pm EST Sunday 29 May 2016 (issued every 30 minutes, with the page automatically refreshed every 10 minutes)

About weather observations | Map of weather stations | Latest weather observations for NSW | Other Formats
Station Details ID: 065103 Name: FORBES AIRPORT AWS Lat: -33.36 Lon: 147.92 Height: 230.4 m
Data from the previous 72 hours. | See also: Recent months at Forbes
Date/Time
EST
Temp
°C
App
Temp
°C
Dew
Point
Rel
Hum
%
Delta-T
°C
Wind Press
QNH
hPa
Press
MSL
hPa
Rain
since 9 am
mm
Dir
 
Spd
km/h
Gust
km/h
Spd
kts
Gust
kts
29/03:00pm 12.0 9.5 6.5 69 2.6 S 9 13 5 7 1020.5 1020.5 0.0
29/02:30pm 12.6 10.8 8.1 74 2.2 WSW 7 11 4 6 1020.2 1020.2 0.0
29/02:00pm 11.7 8.9 7.0 73 2.3 W 11 19 6 10 1020.3 1020.3 0.0
29/01:30pm 11.2 8.6 6.1 71 2.4 SW 9 15 5 8 1020.5 1020.5 0.0
29/01:00pm 11.1 9.1 7.2 77 1.9 S 7 13 4 7 1020.5 1020.5 0.0
29/12:30pm 11.7 9.3 7.0 73 2.3 W 9 17 5 9 1020.8 1020.8 0.0
29/12:00pm 11.1 8.3 7.0 76 2.0 WSW 11 15 6 8 1020.9 1020.9 0.0
29/11:30am 10.0 8.0 6.9 81 1.5 SSE 7 13 4 7 1021.1 1021.1 0.0
29/11:00am 10.1 8.2 7.7 85 1.2 S 7 13 4 7 1021.2 1021.2 0.0
29/10:30am 9.0 8.0 7.3 89 0.8 SW 2 9 1 5 1021.4 1021.4 0.0
29/10:00am 8.8 7.1 7.4 91 0.7 WNW 6 11 3 6 1021.3 1021.3 0.0
29/09:30am 8.1 6.2 7.5 96 0.3 WNW 7 9 4 5 1021.0 1021.0 0.0
29/09:00am 6.9 5.0 6.8 99 0.0 WNW 6 7 3 4 1020.8 1020.8 0.4
29/08:30am 5.3 4.2 5.2 99 0.0 CALM 0 0 0 0 1020.4 1020.4 0.4
29/08:00am 4.9 3.7 4.8 99 0.0 CALM 0 0 0 0 1019.8 1019.8 0.4
29/07:30am 2.4 -0.4 2.3 99 0.0 ENE 6 7 3 4 1019.5 1019.5 0.4
29/07:00am 1.5 -0.3 1.4 99 0.0 CALM 0 0 0 0 1019.4 1019.4 0.4
29/06:30am 2.4 0.8 2.3 99 0.0 CALM 0 0 0 0 1019.1 1019.1 0.4
29/06:00am 1.9 0.2 1.8 99 0.0 CALM 0 0 0 0 1018.9 1018.9 0.4
29/05:30am 2.4 0.8 2.3 99 0.0 CALM 0 0 0 0 1018.5 1018.5 0.4
29/05:00am 3.0 1.5 2.9 99 0.0 CALM 0 0 0 0 1018.3 1018.3 0.4
29/04:30am 3.4 2.0 3.3 99 0.0 CALM 0 0 0 0 1018.1 1018.1 0.4
29/04:00am 4.0 1.3 3.9 99 0.0 WNW 7 9 4 5 1017.9 1017.8 0.4
29/03:30am 4.1 1.6 4.0 99 0.0 NNW 6 9 3 5 1017.9 1017.8 0.4
29/03:00am 5.0 2.1 4.9 99 0.0 WNW 9 11 5 6 1017.6 1017.6 0.4
29/02:30am 5.5 2.4 5.4 99 0.0 WNW 11 13 6 7 1017.5 1017.5 0.4
29/02:00am 5.4 1.9 5.3 99 0.0 NW 13 15 7 8 1017.5 1017.5 0.4
29/01:30am 5.2 2.4 5.1 99 0.0 NW 9 11 5 6 1017.2 1017.2 0.4
29/01:00am 5.5 2.4 5.4 99 0.0 NW 11 13 6 7 1017.1 1017.1 0.4
29/12:30am 5.4 2.2 5.3 99 0.0 NW 11 13 6 7 1017.0 1017.0 0.2
29/12:00am 6.0 3.4 5.9 99 0.0 WNW 9 11 5 6 1016.9 1016.9 0.2
 
Date/Time
EST
Temp
°C
App
Temp
°C
Dew
Point
Rel
Hum
%
Delta-T
°C
Wind Press
QNH
hPa
Press
MSL
hPa
Rain
since 9 am
mm
Dir
 
Spd
km/h
Gust
km/h
Spd
kts
Gust
kts
28/11:30pm 6.9 4.5 6.8 99 0.0 WNW 9 11 5 6 1016.9 1016.9 0.2
28/11:00pm 7.5 4.8 7.4 99 0.0 WNW 11 13 6 7 1016.8 1016.8 0.2
28/10:30pm 8.3 5.0 8.2 99 0.0 WNW 15 17 8 9 1016.7 1016.7 0.2
28/10:00pm 8.1 5.5 7.8 98 0.1 WNW 11 13 6 7 1016.4 1016.4 0.2
28/09:30pm 9.2 6.4 8.7 97 0.2 WNW 13 15 7 8 1016.2 1016.2 0.2
28/09:00pm 9.1 6.7 8.8 98 0.1 W 11 15 6 8 1016.0 1016.0 0.2
28/08:30pm 8.8 7.0 8.0 95 0.4 W 7 9 4 5 1015.7 1015.7 0.2
28/08:00pm 9.5 6.7 8.7 95 0.4 W 13 19 7 10 1015.5 1015.5 0.2
28/07:30pm 9.5 6.7 8.7 95 0.4 W 13 17 7 9 1015.2 1015.2 0.2
28/07:00pm 9.1 6.2 8.2 94 0.4 W 13 17 7 9 1014.7 1014.7 0.2
28/06:30pm 9.5 6.6 8.1 91 0.7 W 13 19 7 10 1014.3 1014.2 0.2
28/06:00pm 9.9 6.7 8.3 90 0.8 W 15 24 8 13 1014.2 1014.1 0.2
28/05:30pm 9.9 6.2 8.0 88 0.9 W 17 26 9 14 1013.6 1013.5 0.2
28/05:00pm 10.3 6.0 7.9 85 1.2 W 20 24 11 13 1013.0 1013.0 0.2
28/04:30pm 10.9 6.5 7.6 80 1.6 W 20 24 11 13 1012.5 1012.5 0.2
28/04:00pm 10.9 5.8 7.6 80 1.6 W 24 32 13 17 1012.2 1012.2 0.2
28/03:30pm 11.3 7.0 7.0 75 2.1 W 19 24 10 13 1011.4 1011.4 0.2
28/03:00pm 11.9 7.5 7.6 75 2.1 SW 20 28 11 15 1011.1 1011.1 0.2
28/02:30pm 10.7 6.5 7.6 81 1.5 SW 19 28 10 15 1010.7 1010.7 0.2
28/02:00pm 11.6 7.5 8.5 81 1.6 SW 20 28 11 15 1010.5 1010.4 0.2
28/01:30pm 11.4 6.8 8.3 81 1.5 WSW 22 30 12 16 1010.3 1010.2 0.2
28/01:00pm 10.3 5.0 6.6 78 1.8 SW 24 32 13 17 1010.1 1010.0 0.2
28/12:30pm 11.5 6.3 7.2 75 2.1 WSW 24 35 13 19 1009.9 1009.8 0.2
28/12:00pm 10.6 6.7 8.5 87 1.0 W 19 26 10 14 1009.9 1009.8 0.2
28/11:30am 10.2 6.0 7.6 84 1.3 W 19 26 10 14 1009.9 1009.8 0.0
28/11:00am 10.3 6.1 8.2 87 1.0 W 20 26 11 14 1010.1 1010.0 0.0
28/10:30am 10.4 6.1 7.8 84 1.3 W 20 28 11 15 1010.0 1009.9 0.0
28/10:00am 9.6 5.5 7.9 89 0.8 W 19 24 10 13 1009.9 1009.8 0.0
28/09:30am 9.8 5.8 8.2 90 0.8 WNW 19 24 10 13 1009.7 1009.6 0.0
28/09:00am 9.0 4.6 7.5 90 0.7 W 20 30 11 16 1009.6 1009.5 4.8
28/08:30am 9.0 6.1 8.1 94 0.4 W 13 19 7 10 1009.5 1009.4 4.8
28/08:00am 8.3 3.9 7.2 93 0.5 W 20 28 11 15 1009.0 1008.9 4.8
28/07:30am 8.5 4.5 8.2 98 0.1 WNW 19 22 10 12 1008.8 1008.7 4.8
28/07:00am 8.4 4.4 8.3 99 0.0 NW 19 24 10 13 1008.3 1008.3 4.8
28/06:30am 8.5 3.9 8.2 98 0.1 NW 22 28 12 15 1008.0 1008.0 4.6
28/06:00am 8.8 4.7 8.0 95 0.4 NW 19 24 10 13 1007.8 1007.8 4.0
28/05:30am 8.8 4.7 8.0 95 0.4 NNW 19 22 10 12 1007.6 1007.6 4.0
28/05:00am 8.9 5.3 8.3 96 0.3 NNW 17 20 9 11 1007.4 1007.4 3.4
28/04:30am 9.0 5.7 7.9 93 0.5 WNW 15 19 8 10 1007.5 1007.5 2.4
28/04:00am 9.3 4.9 7.6 89 0.8 W 20 26 11 14 1007.4 1007.4 2.4
28/03:30am 9.7 4.2 7.6 87 1.0 W 26 33 14 18 1007.6 1007.6 2.4
28/03:23am 9.9 4.0 7.7 86 1.1 W 28 35 15 19 1007.6 1007.6 2.4
28/03:00am 9.9 7.6 9.0 94 0.5 NNW 11 15 6 8 1007.5 1007.5 2.4
28/02:30am 9.8 7.8 8.6 92 0.6 NW 9 13 5 7 1007.4 1007.4 2.4
28/02:00am 10.1 6.6 8.7 91 0.7 N 17 22 9 12 1007.7 1007.7 1.6
28/01:30am 9.8 6.3 8.6 92 0.6 N 17 22 9 12 1008.0 1008.0 1.6
28/01:00am 9.5 6.3 8.6 94 0.4 NNE 15 19 8 10 1008.4 1008.4 1.6
28/12:30am 9.5 6.3 8.4 93 0.5 NNE 15 19 8 10 1009.1 1009.0 1.6
28/12:00am 9.8 7.1 9.0 95 0.4 NNE 13 15 7 8 1009.7 1009.6 1.6
 
Date/Time
EST
Temp
°C
App
Temp
°C
Dew
Point
Rel
Hum
%
Delta-T
°C
Wind Press
QNH
hPa
Press
MSL
hPa
Rain
since 9 am
mm
Dir
 
Spd
km/h
Gust
km/h
Spd
kts
Gust
kts
27/11:30pm 9.6 6.5 8.7 94 0.4 NNE 15 20 8 11 1010.0 1009.9 1.6
27/11:00pm 9.7 6.9 8.5 92 0.6 NNE 13 15 7 8 1010.2 1010.1 0.0
27/10:30pm 9.7 7.3 8.6 93 0.5 NNE 11 13 6 7 1010.4 1010.3 0.0
27/10:00pm 9.9 7.2 8.8 93 0.5 NNE 13 15 7 8 1010.7 1010.7 0.0
27/09:30pm 10.1 7.8 8.9 92 0.6 N 11 13 6 7 1010.8 1010.8 0.0
27/09:00pm 10.0 8.0 8.8 92 0.6 N 9 11 5 6 1010.9 1010.9 0.0
27/08:30pm 10.3 7.9 8.7 90 0.8 NNW 11 13 6 7 1011.0 1011.0 0.0
27/08:00pm 9.9 7.5 8.8 93 0.5 NW 11 13 6 7 1011.0 1011.0 0.0
27/07:30pm 9.6 7.6 8.5 93 0.5 NNW 9 9 5 5 1010.9 1010.9 0.0
27/07:00pm 9.9 9.5 8.2 89 0.8 CALM 0 0 0 0 1010.8 1010.8 0.0
27/06:30pm 9.9 9.4 7.7 86 1.1 CALM 0 0 0 0 1010.6 1010.5 0.0
27/06:00pm 10.2 8.3 7.4 83 1.4 WNW 7 9 4 5 1010.4 1010.3 0.0
27/05:30pm 11.7 8.7 7.8 77 1.9 W 13 17 7 9 1010.2 1010.1 0.0
27/05:00pm 12.2 8.4 7.5 73 2.3 W 17 22 9 12 1009.8 1009.7 0.0
27/04:30pm 13.4 10.4 7.8 69 2.8 W 13 26 7 14 1009.6 1009.5 0.0
27/04:00pm 13.0 9.3 7.9 71 2.5 WSW 17 22 9 12 1009.5 1009.4 0.0
27/03:30pm 12.6 8.7 7.3 70 2.6 W 17 24 9 13 1009.3 1009.2 0.0
27/03:00pm 13.1 8.5 6.7 65 3.1 WSW 20 28 11 15 1009.1 1009.0 0.0
27/02:30pm 12.7 7.3 6.3 65 3.1 WSW 24 32 13 17 1009.1 1009.0 0.0
27/02:00pm 13.1 7.0 6.7 65 3.1 W 28 37 15 20 1008.9 1008.8 0.0
27/01:30pm 13.8 8.2 7.3 65 3.2 WSW 26 35 14 19 1009.0 1008.9 0.0
27/01:00pm 12.6 7.3 6.9 68 2.8 WSW 24 33 13 18 1009.4 1009.3 0.0
27/12:30pm 12.7 7.6 7.6 71 2.5 W 24 33 13 18 1009.6 1009.5 0.0
27/12:00pm 11.8 7.4 7.5 75 2.1 W 20 32 11 17 1009.8 1009.7 0.0
27/11:30am 11.4 7.5 7.3 76 2.0 WSW 17 22 9 12 1010.0 1009.9 0.0
27/11:00am 11.5 7.3 7.6 77 1.9 WSW 19 24 10 13 1010.3 1010.2 0.0
27/10:30am 11.0 7.3 7.9 81 1.5 WSW 17 22 9 12 1010.7 1010.7 0.0
27/10:00am 9.9 6.8 7.2 83 1.3 WSW 13 20 7 11 1010.7 1010.7 0.0
27/09:30am 9.3 5.4 7.1 86 1.0 W 17 22 9 12 1010.8 1010.8 0.0
27/09:00am 8.8 5.0 7.4 91 0.7 W 17 20 9 11 1010.5 1010.4 2.8
27/08:30am 7.8 4.0 7.4 97 0.2 WNW 17 20 9 11 1010.2 1010.1 2.8
27/08:00am 6.7 3.8 6.6 99 0.0 WNW 11 15 6 8 1010.0 1009.9 2.8
27/07:30am 5.4 2.6 5.3 99 0.0 NW 9 13 5 7 1009.8 1009.7 2.8
27/07:00am 4.3 1.7 4.0 98 0.1 NW 7 11 4 6 1009.7 1009.6 2.8
27/06:30am 5.6 2.1 5.5 99 0.0 WNW 13 17 7 9 1009.6 1009.5 2.8
27/06:00am 5.6 2.5 5.5 99 0.0 W 11 13 6 7 1009.3 1009.2 2.8
27/05:30am 5.7 2.6 5.6 99 0.0 WNW 11 15 6 8 1009.1 1009.0 2.8
27/05:00am 5.3 2.8 4.9 97 0.2 W 7 9 4 5 1009.0 1008.9 2.8
27/04:30am 5.5 4.0 4.8 95 0.3 W 2 7 1 4 1008.5 1008.5 2.8
27/04:00am 6.0 3.5 5.0 93 0.4 W 7 9 4 5 1008.4 1008.4 2.8
27/03:30am 7.1 4.5 6.0 93 0.5 WSW 9 13 5 7 1008.3 1008.3 2.8
27/03:00am 7.6 4.7 6.4 92 0.6 WSW 11 13 6 7 1008.3 1008.3 2.8
27/02:30am 8.0 5.1 6.6 91 0.7 WSW 11 15 6 8 1008.3 1008.3 2.8
27/02:00am 8.2 4.6 6.8 91 0.7 WSW 15 19 8 10 1008.2 1008.2 2.8
27/01:30am 8.6 4.7 7.1 90 0.7 WSW 17 20 9 11 1008.1 1008.1 2.8
27/01:00am 9.1 5.6 7.4 89 0.8 WSW 15 17 8 9 1008.0 1008.0 2.8
27/12:30am 9.4 6.4 7.7 89 0.8 WSW 13 19 7 10 1008.2 1008.2 2.8
27/12:00am 9.7 6.4 8.0 89 0.8 WSW 15 22 8 12 1008.2 1008.2 2.8
 
Date/Time
EST
Temp
°C
App
Temp
°C
Dew
Point
Rel
Hum
%
Delta-T
°C
Wind Press
QNH
hPa
Press
MSL
hPa
Rain
since 9 am
mm
Dir
 
Spd
km/h
Gust
km/h
Spd
kts
Gust
kts
26/11:30pm 10.1 6.6 8.7 91 0.7 W 17 22 9 12 1008.3 1008.3 2.8
26/11:00pm 10.3 6.9 9.2 93 0.6 W 17 20 9 11 1007.9 1007.9 2.8
26/10:30pm 10.7 7.3 9.1 90 0.8 WSW 17 24 9 13 1007.8 1007.8 2.8
26/10:00pm 11.1 7.9 9.9 92 0.6 WSW 17 24 9 13 1008.1 1008.1 2.8
26/09:30pm 11.3 8.6 10.2 93 0.6 WSW 15 20 8 11 1007.9 1007.9 2.8
26/09:00pm 12.1 10.0 11.0 93 0.6 W 13 24 7 13 1007.9 1007.9 2.8
26/08:30pm 12.3 10.2 11.2 93 0.6 WSW 13 19 7 10 1007.6 1007.6 2.8
26/08:00pm 12.2 10.1 11.3 94 0.5 W 13 19 7 10 1007.1 1007.1 2.8
26/07:30pm 11.8 10.5 11.2 96 0.3 W 9 13 5 7 1006.9 1006.8 2.8
26/07:00pm 12.1 10.0 11.3 95 0.4 W 13 17 7 9 1006.6 1006.5 2.8
26/06:30pm 12.3 10.7 11.5 95 0.4 WSW 11 15 6 8 1006.3 1006.2 2.6
26/06:00pm 13.1 10.6 12.2 94 0.5 W 17 20 9 11 1006.0 1005.9 2.6
26/05:30pm 13.4 11.7 12.3 93 0.6 WNW 13 15 7 8 1005.5 1005.4 2.2
26/05:00pm 14.0 11.5 12.2 89 1.0 WNW 17 20 9 11 1005.0 1004.9 2.2
26/04:30pm 14.3 12.1 12.2 87 1.2 WNW 15 20 8 11 1004.8 1004.7 2.2
26/04:00pm 14.1 12.1 12.7 91 0.8 WNW 15 19 8 10 1004.7 1004.6 2.2

Other Formats:

Comma delimited format used in spreadsheet applications
http://www.bom.gov.au/fwo/IDN60801/IDN60801.94715.axf

JavaScript Object Notation format (JSON) in row-major order
http://www.bom.gov.au/fwo/IDN60801/IDN60801.94715.json